Latest Weather Observations for Dennes Point

IDT60801

Issued at 11:01 am EST Tuesday 26 May 2020 (issued every 10 minutes, with the page automatically refreshed every 10 minutes)

About weather observations | Map of weather stations | Latest weather observations for TAS | Other Formats
Station Details ID: 094255 Name: DENNES POINT Lat: -43.06 Lon: 147.36 Height: 5.67 m
Data from the previous 72 hours. | See also: Recent months at Dennes Point
Date/Time
EST
Temp
°C
App
Temp
°C
Dew
Point
°C
Rel
Hum
%
Delta-T
°C
Wind Press
QNH
hPa
Press
MSL
hPa
Rain since
9am
mm
Dir  Spd
km/h
Gust
km/h
Spd
kts
Gust
kts
26/11:00am 7.2 2.1 4.3 82 1.2 NNE 20 24 11 13 1027.4 1027.4 0.0
26/10:30am 6.7 1.9 4.4 85 1.0 NNE 19 20 10 11 1027.8 1027.8 0.0
26/10:00am 6.2 1.3 4.2 87 0.8 NNE 19 22 10 12 1027.9 1027.9 0.0
26/09:30am 6.0 0.6 4.3 89 0.7 NNE 22 28 12 15 1028.0 1028.0 0.0
26/09:00am 5.9 0.2 4.7 92 0.5 NNE 24 28 13 15 1028.0 1028.0 0.2
26/08:30am 5.3 -0.1 4.4 94 0.4 NNE 22 26 12 14 1028.0 1028.0 0.2
26/08:00am 5.3 -0.2 4.0 91 0.5 NNE 22 26 12 14 1028.2 1028.2 0.2
26/07:30am 5.6 1.5 4.4 92 0.5 N 15 19 8 10 1028.2 1028.2 0.2
26/07:00am 5.0 0.1 4.0 93 0.4 NNE 19 24 10 13 1028.2 1028.2 0.2
26/06:30am 5.5 2.1 3.8 89 0.7 N 11 17 6 9 1028.5 1028.5 0.2
26/06:00am 5.3 1.5 4.0 91 0.5 N 13 17 7 9 1028.5 1028.5 0.2
26/05:30am 3.6 0.6 2.3 91 0.5 WSW 7 11 4 6 1028.5 1028.5 0.0
26/05:00am 3.9 1.3 3.0 94 0.4 S 6 9 3 5 1028.4 1028.4 0.0
26/04:30am 3.6 0.3 2.7 94 0.4 SSW 9 9 5 5 1028.4 1028.4 0.0
26/04:00am 3.9 0.7 3.2 95 0.3 S 9 11 5 6 1028.4 1028.4 0.0
26/03:30am 3.9 1.3 3.0 94 0.4 SSW 6 9 3 5 1028.4 1028.4 0.0
26/03:00am 4.3 1.5 3.0 91 0.5 WSW 7 13 4 7 1028.3 1028.3 0.0
26/02:30am 6.8 3.2 4.8 87 0.9 NNE 13 17 7 9 1028.3 1028.3 0.0
26/02:00am 6.7 3.0 4.7 87 0.9 NNE 13 15 7 8 1028.5 1028.5 0.0
26/01:30am 6.6 4.0 4.3 85 1.0 N 7 15 4 8 1028.5 1028.5 0.0
26/01:00am 6.4 3.9 3.9 84 1.1 N 6 9 3 5 1028.4 1028.4 0.0
26/12:30am 6.5 4.1 4.2 85 1.0 NW 6 9 3 5 1028.4 1028.4 0.0
26/12:00am 7.1 4.2 4.8 85 1.0 N 9 13 5 7 1028.7 1028.7 0.0
 
Date/Time
EST
Temp
°C
App
Temp
°C
Dew
Point
°C
Rel
Hum
%
Delta-T
°C
Wind Press
QNH
hPa
Press
MSL
hPa
Rain since
9am
mm
Dir  Spd
km/h
Gust
km/h
Spd
kts
Gust
kts
25/11:30pm 7.0 4.1 4.7 85 1.0 N 9 13 5 7 1028.7 1028.7 0.0
25/11:00pm 6.7 4.8 4.9 88 0.8 WNW 4 9 2 5 1028.6 1028.6 0.0
25/10:30pm 7.3 5.1 5.3 87 0.9 N 6 11 3 6 1028.7 1028.7 0.0
25/10:00pm 6.2 4.7 4.8 91 0.6 NNE 2 6 1 3 1028.7 1028.7 0.0
25/09:30pm 5.3 2.8 4.0 91 0.5 SSW 6 9 3 5 1028.9 1028.9 0.0
25/09:00pm 5.8 3.2 4.1 89 0.7 SSW 7 13 4 7 1029.0 1029.0 0.0
25/08:30pm 8.0 5.6 5.1 82 1.3 N 7 11 4 6 1029.0 1029.0 0.0
25/08:00pm 8.7 5.6 5.6 81 1.4 NNE 11 15 6 8 1028.9 1028.9 0.0
25/07:30pm 8.7 6.0 5.4 80 1.5 NNE 9 11 5 6 1028.8 1028.8 0.0
25/07:00pm 9.0 5.9 5.6 79 1.5 NE 11 13 6 7 1028.6 1028.6 0.0
25/06:30pm 9.0 5.9 5.4 78 1.6 NE 11 13 6 7 1028.3 1028.3 0.0
25/06:00pm 9.2 5.3 5.2 76 1.8 ENE 15 17 8 9 1028.0 1028.0 0.0
25/05:30pm 9.2 5.2 5.0 75 1.9 ENE 15 17 8 9 1027.6 1027.6 0.0
25/05:00pm 9.1 5.8 4.5 73 2.0 ENE 11 15 6 8 1027.7 1027.7 0.0
25/04:30pm 9.1 6.1 4.3 72 2.1 NE 9 13 5 7 1027.7 1027.7 0.0
25/04:00pm 9.6 7.0 4.0 68 2.4 ENE 7 11 4 6 1027.9 1027.9 0.0
25/03:30pm 9.8 6.8 4.2 68 2.5 NE 9 13 5 7 1027.8 1027.8 0.0
25/03:00pm 10.0 6.7 4.4 68 2.5 NE 11 15 6 8 1027.2 1027.2 0.0
25/02:30pm 10.2 6.9 4.6 68 2.5 NE 11 13 6 7 1027.2 1027.2 0.0
25/02:00pm 10.6 7.9 5.4 70 2.4 NNE 9 17 5 9 1027.0 1027.0 0.0
25/01:30pm 10.0 7.1 4.6 69 2.4 N 9 15 5 8 1027.1 1027.1 0.0
25/01:00pm 9.7 6.7 4.3 69 2.4 NNE 9 15 5 8 1027.1 1027.1 0.0
25/12:30pm 9.5 6.6 4.5 71 2.2 N 9 13 5 7 1027.4 1027.4 0.0
25/12:00pm 9.6 6.8 5.0 73 2.1 N 9 17 5 9 1027.9 1027.9 0.0
25/11:30am 9.7 7.4 4.7 71 2.2 NNE 6 13 3 7 1028.2 1028.2 0.0
25/11:00am 9.4 7.0 4.4 71 2.2 NNE 6 7 3 4 1028.8 1028.8 0.0
25/10:30am 9.2 6.9 4.6 73 2.0 WNW 6 7 3 4 1029.3 1029.3 0.0
25/10:00am 9.0 6.7 4.8 75 1.9 WSW 6 9 3 5 1029.5 1029.5 0.0
25/09:30am 8.9 6.4 4.9 76 1.8 SSW 7 9 4 5 1029.9 1029.9 0.0
25/09:00am 8.5 6.0 4.5 76 1.7 SSW 7 11 4 6 1029.7 1029.7 0.4
25/08:30am 8.1 5.7 4.5 78 1.6 SSW 6 9 3 5 1029.5 1029.5 0.4
25/08:00am 7.8 4.9 4.4 79 1.5 SSW 9 11 5 6 1029.2 1029.2 0.4
25/07:30am 7.9 5.3 4.1 77 1.6 SW 7 11 4 6 1028.8 1028.8 0.4
25/07:00am 8.3 6.1 3.6 72 2.0 WNW 4 9 2 5 1028.2 1028.2 0.4
25/06:30am 7.9 5.5 4.3 78 1.6 SW 6 9 3 5 1027.8 1027.8 0.4
25/06:00am 8.0 5.9 3.8 75 1.8 SSW 4 6 2 3 1027.2 1027.2 0.4
25/05:30am 7.9 6.2 3.8 75 1.8 SSW 2 4 1 2 1027.1 1027.1 0.4
25/05:00am 8.0 5.5 3.7 74 1.8 SW 6 9 3 5 1027.2 1027.2 0.4
25/04:30am 7.9 5.7 3.6 74 1.8 SSW 4 6 2 3 1027.0 1027.0 0.4
25/04:00am 8.3 5.8 3.6 72 2.0 SSE 6 9 3 5 1027.2 1027.2 0.4
25/03:30am 8.3 6.0 4.7 78 1.6 S 6 7 3 4 1027.4 1027.4 0.4
25/03:00am 8.3 6.3 4.5 77 1.7 S 4 6 2 3 1027.5 1027.5 0.4
25/02:30am 8.3 5.8 4.9 79 1.5 SSW 7 9 4 5 1027.4 1027.4 0.4
25/02:00am 8.3 5.9 5.1 80 1.4 SSW 7 9 4 5 1027.4 1027.4 0.4
25/01:30am 8.3 6.1 5.2 81 1.4 SW 6 7 3 4 1027.4 1027.4 0.4
25/01:00am 8.1 6.3 5.2 82 1.3 SW 4 6 2 3 1027.5 1027.5 0.4
25/12:30am 8.3 5.8 4.9 79 1.5 S 7 9 4 5 1027.5 1027.5 0.4
25/12:00am 8.3 5.1 5.1 80 1.4 SW 11 13 6 7 1027.4 1027.4 0.4
 
Date/Time
EST
Temp
°C
App
Temp
°C
Dew
Point
°C
Rel
Hum
%
Delta-T
°C
Wind Press
QNH
hPa
Press
MSL
hPa
Rain since
9am
mm
Dir  Spd
km/h
Gust
km/h
Spd
kts
Gust
kts
24/11:30pm 8.4 5.6 5.3 81 1.4 SW 9 13 5 7 1027.5 1027.5 0.4
24/11:00pm 8.4 5.3 5.5 82 1.3 W 11 15 6 8 1027.6 1027.6 0.4
24/10:30pm 8.3 5.3 5.8 84 1.1 WSW 11 15 6 8 1027.5 1027.5 0.4
24/10:00pm 8.3 4.9 5.8 84 1.1 WSW 13 19 7 10 1027.4 1027.4 0.4
24/09:30pm 8.4 5.3 5.7 83 1.2 WSW 11 15 6 8 1027.1 1027.1 0.4
24/09:00pm 8.2 5.4 5.3 82 1.3 SSW 9 13 5 7 1027.0 1027.0 0.4
24/08:30pm 8.7 6.2 4.7 76 1.8 S 7 11 4 6 1027.0 1027.0 0.4
24/08:00pm 8.8 6.2 4.2 73 2.0 S 7 11 4 6 1026.9 1026.9 0.4
24/07:30pm 8.8 6.2 4.2 73 2.0 S 7 11 4 6 1026.7 1026.7 0.4
24/07:00pm 8.5 6.1 4.5 76 1.7 S 6 7 3 4 1026.3 1026.3 0.4
24/06:30pm 8.5 6.3 5.1 79 1.5 SSW 6 7 3 4 1026.1 1026.1 0.4
24/06:00pm 8.7 6.7 4.5 75 1.8 S 4 6 2 3 1026.1 1026.1 0.4
24/05:30pm 8.8 6.2 4.2 73 2.0 S 7 11 4 6 1025.8 1025.8 0.4
24/05:00pm 9.0 6.4 4.2 72 2.1 S 7 9 4 5 1025.6 1025.6 0.4
24/04:30pm 9.0 6.5 4.8 75 1.9 S 7 13 4 7 1025.6 1025.6 0.4
24/04:00pm 9.2 6.2 5.8 79 1.5 SSW 11 17 6 9 1025.4 1025.4 0.4
24/03:30pm 9.4 6.5 4.8 73 2.1 SSW 9 13 5 7 1025.3 1025.3 0.4
24/03:00pm 9.6 5.7 5.4 75 1.9 SSW 15 22 8 12 1025.2 1025.2 0.4
24/02:30pm 10.2 6.8 6.0 75 1.9 SSW 13 20 7 11 1025.3 1025.3 0.4
24/02:00pm 9.7 5.8 5.5 75 1.9 SSW 15 20 8 11 1025.1 1025.1 0.4
24/01:30pm 9.1 5.1 6.7 85 1.1 S 17 26 9 14 1025.4 1025.4 0.4
24/01:00pm 9.9 7.3 7.7 86 1.0 S 11 17 6 9 1025.0 1025.0 0.4
24/12:30pm 9.6 6.5 7.4 86 1.0 S 13 20 7 11 1025.0 1025.0 0.2
24/12:00pm 9.8 6.8 7.9 88 0.9 SSW 13 20 7 11 1024.9 1024.9 0.2
24/11:30am 9.9 6.8 7.3 84 1.2 SSW 13 20 7 11 1024.9 1024.9 0.2
24/11:00am 10.7 7.7 7.8 82 1.4 SSW 13 19 7 10 1024.8 1024.8 0.2
24/10:30am 10.8 8.6 7.7 81 1.5 SSE 9 15 5 8 1024.6 1024.6 0.2
24/10:00am 10.4 7.4 7.8 84 1.2 SSW 13 20 7 11 1024.2 1024.2 0.2
24/09:30am 9.8 6.8 7.9 88 0.9 SSW 13 20 7 11 1024.1 1024.1 0.2
24/09:00am 9.4 7.3 8.2 92 0.6 SSW 9 13 5 7 1024.0 1024.0 0.6
24/08:30am 9.3 6.8 8.1 92 0.6 SW 11 17 6 9 1023.7 1023.7 0.6
24/08:00am 9.2 6.2 7.6 90 0.8 SW 13 19 7 10 1023.2 1023.2 0.6
24/07:30am 8.6 6.2 7.2 91 0.7 SSW 9 15 5 8 1022.8 1022.8 0.6
24/07:00am 7.9 5.0 6.5 91 0.6 SW 11 15 6 8 1022.5 1022.5 0.6
24/06:30am 8.6 5.9 7.4 92 0.6 SW 11 15 6 8 1022.1 1022.1 0.6
24/06:00am 8.7 6.0 7.5 92 0.6 SW 11 15 6 8 1021.8 1021.8 0.6
24/05:30am 8.9 6.3 7.7 92 0.6 SW 11 17 6 9 1021.4 1021.4 0.6
24/05:00am 8.4 6.1 7.3 93 0.5 SW 9 15 5 8 1021.1 1021.1 0.4
24/04:30am 8.8 5.8 7.7 93 0.5 SW 13 17 7 9 1021.0 1021.0 0.4
24/04:00am 8.8 5.7 7.4 91 0.7 SW 13 20 7 11 1020.8 1020.8 0.2
24/03:30am 8.7 5.2 7.0 89 0.8 SSW 15 19 8 10 1020.8 1020.8 0.0
24/03:00am 8.8 6.0 6.8 87 0.9 SSW 11 20 6 11 1020.9 1020.9 0.0
24/02:30am 9.2 6.2 6.1 81 1.4 SSW 11 20 6 11 1020.8 1020.8 0.0
24/02:00am 9.1 5.4 6.4 83 1.2 SSW 15 24 8 13 1020.7 1020.7 0.0
24/01:30am 9.8 6.0 6.0 77 1.7 SW 15 20 8 11 1020.4 1020.4 0.0
24/01:00am 9.7 5.5 5.9 77 1.7 SW 17 28 9 15 1020.3 1020.3 0.0
24/12:30am 9.8 6.2 4.8 71 2.2 SSW 13 19 7 10 1020.4 1020.4 0.0
24/12:00am 10.2 5.5 5.0 70 2.3 WSW 19 24 10 13 1020.0 1020.0 0.0
 
Date/Time
EST
Temp
°C
App
Temp
°C
Dew
Point
°C
Rel
Hum
%
Delta-T
°C
Wind Press
QNH
hPa
Press
MSL
hPa
Rain since
9am
mm
Dir  Spd
km/h
Gust
km/h
Spd
kts
Gust
kts
23/11:30pm 10.1 5.2 5.1 71 2.3 WSW 20 26 11 14 1019.9 1019.9 0.0
23/11:00pm 10.0 5.9 4.2 67 2.6 SW 15 22 8 12 1019.7 1019.7 0.0
23/10:30pm 10.1 6.1 4.7 69 2.4 SW 15 22 8 12 1019.6 1019.6 0.0
23/10:00pm 10.2 6.3 5.4 72 2.2 SW 15 22 8 12 1019.6 1019.6 0.0
23/09:30pm 10.1 6.3 5.7 74 2.0 SW 15 28 8 15 1019.6 1019.6 0.0
23/09:00pm 10.3 6.1 5.9 74 2.0 SW 17 22 9 12 1019.5 1019.5 0.0
23/08:30pm 10.1 6.7 5.9 75 1.9 SW 13 22 7 12 1019.2 1019.2 0.0
23/08:00pm 10.0 6.3 6.2 77 1.8 SSW 15 26 8 14 1018.9 1018.9 0.0
23/07:30pm 9.2 5.9 6.3 82 1.3 SSW 13 20 7 11 1018.6 1018.6 0.0
23/07:00pm 10.4 6.7 6.2 75 1.9 SW 15 22 8 12 1018.5 1018.5 0.0
23/06:30pm 9.8 6.3 5.6 75 1.9 SSW 13 20 7 11 1018.1 1018.1 0.0
23/06:00pm 9.4 6.1 6.3 81 1.4 SSW 13 20 7 11 1017.7 1017.7 0.0
23/05:30pm 9.6 5.5 6.3 80 1.5 SSW 17 26 9 14 1017.3 1017.3 0.0
23/05:00pm 10.1 5.6 7.0 81 1.5 SSW 20 28 11 15 1016.9 1016.9 0.0
23/04:30pm 10.4 6.0 7.5 82 1.4 SSW 20 30 11 16 1016.7 1016.7 0.0
23/04:00pm 10.6 6.2 7.5 81 1.5 SW 20 28 11 15 1016.5 1016.5 0.0
23/03:30pm 10.4 5.7 7.8 84 1.3 SSW 22 33 12 18 1016.3 1016.3 0.0
23/03:00pm 10.5 6.0 8.6 88 0.9 SSW 22 39 12 21 1016.2 1016.2 0.0
23/02:30pm 12.0 9.6 8.5 79 1.7 S 11 20 6 11 1016.2 1016.2 0.0
23/02:00pm 11.6 10.7 7.7 77 1.9 ENE 2 6 1 3 1016.0 1016.0 0.0
23/01:30pm 11.4 10.5 7.7 78 1.8 NW 2 6 1 3 1016.1 1016.1 0.0
23/01:00pm 11.4 10.9 7.7 78 1.8 CALM 0 2 0 1 1016.5 1016.5 0.0
23/12:30pm 11.1 9.7 7.4 78 1.8 NE 4 6 2 3 1016.8 1016.8 0.0
23/12:00pm 11.1 9.3 7.0 76 1.9 NNE 6 6 3 3 1016.9 1016.9 0.0
23/11:30am 10.5 8.5 7.2 80 1.6 N 7 9 4 5 1017.3 1017.3 0.0

Other formats

Comma delimited format used in spreadsheet applications
http://www.bom.gov.au/fwo/IDT60801/IDT60801.94988.axf

JavaScript Object Notation format (JSON) in row-major order
http://www.bom.gov.au/fwo/IDT60801/IDT60801.94988.json

Data quality

Most of these data are generated automatically and are frequently updated. Quality checks on data are not normally performed. It is possible for incorrect values to appear. Refer to information at About Latest Weather Observations and please check the disclaimer before using these data.